Tropical Cyclones
[Index]
Main Index Home Page Stock Weather Photos Extreme Storms Discussion Storm News and Storm Chasing Reports Tropical Cyclones / Hurricanes / Typhoons Weather Data and Links Wild Fires / Bushfires Weather Observation Techniques Weather Picture Catalogue Tornado Pictures and Reports Stock Video Footage and DVDs for sale
Season 1974-1975 Tropical Cyclone VIDA Track Map
Season 1974-1975 Summaries: [BoM-AU] [JTWC-AU] [JTWC-SIO] [JTWC-SPAC] [JTWC-SH]
<<- Previous TC | BoM 1974-1975 Season | Next TC ->>

click for intensity scale information  Lat/long Grid: Show Hide

 Date Labels: Show Hide

Bureau of Meteorology Tropical Cyclone Data

Name: VIDA
Number: 541 / 197475_13

16 Mar 1975 00:00 UTC to 20 Mar 1975 12:00 UTC

    date/time    lat    long    hPa   cat  kts
1975-03-16 00   14.2    95.4    999                     
1975-03-16 06   14.2    96.0    998                     
1975-03-16 12   14.2    96.9    997                     
1975-03-16 18   14.2    97.9    995    1                
1975-03-17 00   13.9    98.7    994    1                
1975-03-17 06   13.4    99.6    993    1                
1975-03-17 12   13.3   100.8    992    1                
1975-03-17 18   13.4   101.9    990    1                
1975-03-18 00   13.7   102.6    989    1                
1975-03-18 03   14.2   103.6    989    1                
1975-03-18 06   14.7   104.6    988    1                
1975-03-18 09   15.3   105.4    987    1                
1975-03-18 12   16.0   106.2    985    2                
1975-03-18 15   16.8   106.8    984    2                
1975-03-18 18   17.7   107.5    983    2                
1975-03-18 21   18.9   108.1    983    2                
1975-03-19 00   20.1   108.7    984    2                
1975-03-19 03   21.5   109.3    983    2                
1975-03-19 06   23.0   109.8    982    2                
1975-03-19 09   24.5   110.0    983    2                
1975-03-19 12   26.0   110.2    985    2                
1975-03-19 15   27.5   110.5    986    1                
1975-03-19 18   29.0   110.9    986    1                
1975-03-19 21   30.5   111.5    987    1                
1975-03-20 00   31.9   112.2    988    1                
1975-03-20 03   33.3   113.2    990    1                
1975-03-20 06   34.6   114.3    991    1                
1975-03-20 09   35.8   115.6    993    1                
1975-03-20 12   36.8   117.0    995    1                
Winds are 10-min average.

Tropical cyclone tracks developed by Michael Bath using data from the Bureau of Meteorology and Google Maps.


[Australian Severe Weather index] [Copyright Notice] [Email Contacts] [Search This Site] [Privacy Policy]
Document: tropical_cyclone_vida.htm Updated: 30 May 2013